sensor_id;sensor_type;location;lat;lon;timestamp;P1;durP1;ratioP1;P2;durP2;ratioP2
35442;SDS011;21561;55.654;37.592;2023-11-22T00:01:58;9.85;;;2.58;;
35442;SDS011;21561;55.654;37.592;2023-11-22T00:04:25;8.57;;;2.50;;
35442;SDS011;21561;55.654;37.592;2023-11-22T00:06:52;8.65;;;3.03;;
35442;SDS011;21561;55.654;37.592;2023-11-22T00:09:19;8.65;;;2.67;;
35442;SDS011;21561;55.654;37.592;2023-11-22T00:11:49;9.07;;;2.88;;
35442;SDS011;21561;55.654;37.592;2023-11-22T00:14:16;11.18;;;2.80;;
35442;SDS011;21561;55.654;37.592;2023-11-22T00:16:43;6.05;;;2.03;;
35442;SDS011;21561;55.654;37.592;2023-11-22T00:19:10;3.22;;;1.48;;
35442;SDS011;21561;55.654;37.592;2023-11-22T00:21:37;6.93;;;2.55;;
35442;SDS011;21561;55.654;37.592;2023-11-22T00:24:04;11.77;;;2.90;;
35442;SDS011;21561;55.654;37.592;2023-11-22T00:26:31;8.80;;;2.67;;
35442;SDS011;21561;55.654;37.592;2023-11-22T00:28:59;12.15;;;3.10;;
35442;SDS011;21561;55.654;37.592;2023-11-22T00:31:26;7.45;;;2.28;;
35442;SDS011;21561;55.654;37.592;2023-11-22T00:33:53;9.20;;;2.85;;
35442;SDS011;21561;55.654;37.592;2023-11-22T00:36:19;7.07;;;2.53;;
35442;SDS011;21561;55.654;37.592;2023-11-22T00:38:46;8.35;;;2.60;;
35442;SDS011;21561;55.654;37.592;2023-11-22T00:41:14;8.18;;;2.42;;
35442;SDS011;21561;55.654;37.592;2023-11-22T00:43:43;9.95;;;3.10;;
35442;SDS011;21561;55.654;37.592;2023-11-22T00:46:10;8.35;;;2.60;;
35442;SDS011;21561;55.654;37.592;2023-11-22T00:48:37;7.38;;;2.10;;
35442;SDS011;21561;55.654;37.592;2023-11-22T00:51:04;11.07;;;3.03;;
35442;SDS011;21561;55.654;37.592;2023-11-22T00:53:35;11.07;;;2.63;;
35442;SDS011;21561;55.654;37.592;2023-11-22T00:56:03;7.63;;;2.13;;
35442;SDS011;21561;55.654;37.592;2023-11-22T00:58:32;8.13;;;2.67;;
35442;SDS011;21561;55.654;37.592;2023-11-22T01:00:59;8.23;;;2.60;;
35442;SDS011;21561;55.654;37.592;2023-11-22T01:03:27;9.85;;;3.05;;
35442;SDS011;21561;55.654;37.592;2023-11-22T01:05:54;15.27;;;3.53;;
35442;SDS011;21561;55.654;37.592;2023-11-22T01:08:21;12.32;;;3.33;;
35442;SDS011;21561;55.654;37.592;2023-11-22T01:10:48;7.75;;;2.45;;
35442;SDS011;21561;55.654;37.592;2023-11-22T01:13:15;9.07;;;3.05;;
35442;SDS011;21561;55.654;37.592;2023-11-22T01:15:42;8.93;;;3.03;;
35442;SDS011;21561;55.654;37.592;2023-11-22T01:18:11;12.55;;;3.22;;
35442;SDS011;21561;55.654;37.592;2023-11-22T01:20:38;14.70;;;3.78;;
35442;SDS011;21561;55.654;37.592;2023-11-22T01:23:05;10.27;;;2.92;;
35442;SDS011;21561;55.654;37.592;2023-11-22T01:25:32;11.90;;;3.47;;
35442;SDS011;21561;55.654;37.592;2023-11-22T01:27:59;12.07;;;3.72;;
35442;SDS011;21561;55.654;37.592;2023-11-22T01:30:27;11.20;;;3.10;;
35442;SDS011;21561;55.654;37.592;2023-11-22T01:32:55;10.70;;;3.50;;
35442;SDS011;21561;55.654;37.592;2023-11-22T01:35:22;11.63;;;3.55;;
35442;SDS011;21561;55.654;37.592;2023-11-22T01:37:49;13.50;;;3.63;;
35442;SDS011;21561;55.654;37.592;2023-11-22T01:40:17;17.08;;;4.07;;
35442;SDS011;21561;55.654;37.592;2023-11-22T01:42:45;9.65;;;2.65;;
35442;SDS011;21561;55.654;37.592;2023-11-22T01:45:13;12.80;;;4.07;;
35442;SDS011;21561;55.654;37.592;2023-11-22T01:47:40;15.23;;;4.03;;
35442;SDS011;21561;55.654;37.592;2023-11-22T01:50:07;10.45;;;2.78;;
35442;SDS011;21561;55.654;37.592;2023-11-22T01:52:35;13.15;;;3.80;;
35442;SDS011;21561;55.654;37.592;2023-11-22T01:55:03;11.88;;;3.53;;
35442;SDS011;21561;55.654;37.592;2023-11-22T01:57:31;11.57;;;3.55;;
35442;SDS011;21561;55.654;37.592;2023-11-22T02:00:03;13.60;;;3.38;;
35442;SDS011;21561;55.654;37.592;2023-11-22T02:02:34;12.95;;;3.47;;
35442;SDS011;21561;55.654;37.592;2023-11-22T02:05:01;13.43;;;3.90;;
35442;SDS011;21561;55.654;37.592;2023-11-22T02:07:29;13.52;;;3.38;;
35442;SDS011;21561;55.654;37.592;2023-11-22T02:09:58;12.55;;;3.60;;
35442;SDS011;21561;55.654;37.592;2023-11-22T02:12:25;11.63;;;3.42;;
35442;SDS011;21561;55.654;37.592;2023-11-22T02:14:51;12.77;;;3.60;;
35442;SDS011;21561;55.654;37.592;2023-11-22T02:17:19;11.68;;;3.83;;
35442;SDS011;21561;55.654;37.592;2023-11-22T02:19:46;10.98;;;3.30;;
35442;SDS011;21561;55.654;37.592;2023-11-22T02:22:17;13.48;;;3.60;;
35442;SDS011;21561;55.654;37.592;2023-11-22T02:24:44;12.07;;;3.70;;
35442;SDS011;21561;55.654;37.592;2023-11-22T02:27:10;12.15;;;3.55;;
35442;SDS011;21561;55.654;37.592;2023-11-22T02:29:37;13.02;;;3.70;;
35442;SDS011;21561;55.654;37.592;2023-11-22T02:32:04;14.02;;;3.80;;
35442;SDS011;21561;55.654;37.592;2023-11-22T02:34:32;14.80;;;3.92;;
35442;SDS011;21561;55.654;37.592;2023-11-22T02:36:58;10.45;;;3.00;;
35442;SDS011;21561;55.654;37.592;2023-11-22T02:39:32;13.40;;;3.38;;
35442;SDS011;21561;55.654;37.592;2023-11-22T02:42:11;13.70;;;3.33;;
35442;SDS011;21561;55.654;37.592;2023-11-22T02:44:38;14.32;;;3.40;;
35442;SDS011;21561;55.654;37.592;2023-11-22T02:47:06;11.23;;;3.40;;
35442;SDS011;21561;55.654;37.592;2023-11-22T02:49:33;10.20;;;2.72;;
35442;SDS011;21561;55.654;37.592;2023-11-22T02:52:00;11.48;;;3.00;;
35442;SDS011;21561;55.654;37.592;2023-11-22T02:54:27;9.85;;;3.10;;
35442;SDS011;21561;55.654;37.592;2023-11-22T02:56:55;9.60;;;2.55;;
35442;SDS011;21561;55.654;37.592;2023-11-22T02:59:22;11.18;;;3.05;;
35442;SDS011;21561;55.654;37.592;2023-11-22T03:01:49;12.50;;;2.97;;
35442;SDS011;21561;55.654;37.592;2023-11-22T03:04:17;8.63;;;2.67;;
35442;SDS011;21561;55.654;37.592;2023-11-22T03:06:44;10.82;;;3.08;;
35442;SDS011;21561;55.654;37.592;2023-11-22T03:09:11;12.73;;;3.70;;
35442;SDS011;21561;55.654;37.592;2023-11-22T03:11:40;9.77;;;3.00;;
35442;SDS011;21561;55.654;37.592;2023-11-22T03:14:07;10.23;;;3.15;;
35442;SDS011;21561;55.654;37.592;2023-11-22T03:16:38;12.38;;;4.03;;
35442;SDS011;21561;55.654;37.592;2023-11-22T03:19:06;12.97;;;3.43;;
35442;SDS011;21561;55.654;37.592;2023-11-22T03:21:33;8.18;;;2.38;;
35442;SDS011;21561;55.654;37.592;2023-11-22T03:24:02;11.20;;;3.08;;
35442;SDS011;21561;55.654;37.592;2023-11-22T03:26:32;4.82;;;2.00;;
35442;SDS011;21561;55.654;37.592;2023-11-22T03:28:59;10.07;;;3.20;;
35442;SDS011;21561;55.654;37.592;2023-11-22T03:31:27;13.27;;;3.65;;
35442;SDS011;21561;55.654;37.592;2023-11-22T03:33:56;14.75;;;3.40;;
35442;SDS011;21561;55.654;37.592;2023-11-22T03:36:23;7.78;;;2.40;;
35442;SDS011;21561;55.654;37.592;2023-11-22T03:38:51;13.93;;;3.45;;
35442;SDS011;21561;55.654;37.592;2023-11-22T03:41:18;14.13;;;3.17;;
35442;SDS011;21561;55.654;37.592;2023-11-22T03:43:45;12.20;;;3.30;;
35442;SDS011;21561;55.654;37.592;2023-11-22T03:46:12;11.95;;;3.28;;
35442;SDS011;21561;55.654;37.592;2023-11-22T03:48:39;11.55;;;3.42;;
35442;SDS011;21561;55.654;37.592;2023-11-22T03:51:06;8.98;;;3.13;;
35442;SDS011;21561;55.654;37.592;2023-11-22T03:53:33;11.40;;;3.20;;
35442;SDS011;21561;55.654;37.592;2023-11-22T03:56:00;12.88;;;3.35;;
35442;SDS011;21561;55.654;37.592;2023-11-22T03:58:27;12.68;;;3.67;;
35442;SDS011;21561;55.654;37.592;2023-11-22T04:00:54;9.80;;;2.90;;
35442;SDS011;21561;55.654;37.592;2023-11-22T04:03:21;12.18;;;3.58;;
35442;SDS011;21561;55.654;37.592;2023-11-22T04:05:49;14.40;;;3.60;;
35442;SDS011;21561;55.654;37.592;2023-11-22T04:08:17;11.95;;;3.00;;
35442;SDS011;21561;55.654;37.592;2023-11-22T04:10:44;8.20;;;2.58;;
35442;SDS011;21561;55.654;37.592;2023-11-22T04:13:12;9.73;;;2.33;;
35442;SDS011;21561;55.654;37.592;2023-11-22T04:15:39;14.57;;;4.40;;
35442;SDS011;21561;55.654;37.592;2023-11-22T04:18:08;9.18;;;2.75;;
35442;SDS011;21561;55.654;37.592;2023-11-22T04:20:36;9.75;;;3.03;;
35442;SDS011;21561;55.654;37.592;2023-11-22T04:23:03;11.60;;;2.95;;
35442;SDS011;21561;55.654;37.592;2023-11-22T04:25:30;10.85;;;2.83;;
35442;SDS011;21561;55.654;37.592;2023-11-22T04:27:57;9.68;;;2.60;;
35442;SDS011;21561;55.654;37.592;2023-11-22T04:30:24;12.52;;;3.70;;
35442;SDS011;21561;55.654;37.592;2023-11-22T04:32:51;11.98;;;3.25;;
35442;SDS011;21561;55.654;37.592;2023-11-22T04:35:18;10.25;;;2.53;;
35442;SDS011;21561;55.654;37.592;2023-11-22T04:37:44;12.02;;;3.30;;
35442;SDS011;21561;55.654;37.592;2023-11-22T04:40:13;7.32;;;2.53;;
35442;SDS011;21561;55.654;37.592;2023-11-22T04:42:41;13.15;;;3.65;;
35442;SDS011;21561;55.654;37.592;2023-11-22T04:45:08;12.40;;;3.28;;
35442;SDS011;21561;55.654;37.592;2023-11-22T04:47:36;12.20;;;3.05;;
35442;SDS011;21561;55.654;37.592;2023-11-22T04:50:03;14.30;;;3.58;;
35442;SDS011;21561;55.654;37.592;2023-11-22T04:52:31;13.82;;;3.72;;
35442;SDS011;21561;55.654;37.592;2023-11-22T04:54:59;11.68;;;3.03;;
35442;SDS011;21561;55.654;37.592;2023-11-22T04:57:26;13.55;;;4.20;;
35442;SDS011;21561;55.654;37.592;2023-11-22T04:59:55;9.93;;;2.90;;
35442;SDS011;21561;55.654;37.592;2023-11-22T05:02:23;11.13;;;3.35;;
35442;SDS011;21561;55.654;37.592;2023-11-22T05:04:50;15.55;;;4.38;;
35442;SDS011;21561;55.654;37.592;2023-11-22T05:07:19;12.88;;;3.40;;
35442;SDS011;21561;55.654;37.592;2023-11-22T05:09:45;13.93;;;3.83;;
35442;SDS011;21561;55.654;37.592;2023-11-22T05:12:12;14.23;;;3.95;;
35442;SDS011;21561;55.654;37.592;2023-11-22T05:14:40;13.80;;;3.80;;
35442;SDS011;21561;55.654;37.592;2023-11-22T05:17:10;13.57;;;3.78;;
35442;SDS011;21561;55.654;37.592;2023-11-22T05:19:36;7.32;;;1.67;;
35442;SDS011;21561;55.654;37.592;2023-11-22T05:22:03;13.50;;;3.38;;
35442;SDS011;21561;55.654;37.592;2023-11-22T05:24:31;13.02;;;3.60;;
35442;SDS011;21561;55.654;37.592;2023-11-22T05:26:58;14.00;;;3.10;;
35442;SDS011;21561;55.654;37.592;2023-11-22T05:29:25;8.50;;;2.15;;
35442;SDS011;21561;55.654;37.592;2023-11-22T05:31:58;9.88;;;2.63;;
35442;SDS011;21561;55.654;37.592;2023-11-22T05:34:25;12.57;;;3.63;;
35442;SDS011;21561;55.654;37.592;2023-11-22T05:36:52;7.35;;;1.90;;
35442;SDS011;21561;55.654;37.592;2023-11-22T05:39:19;13.30;;;4.00;;
35442;SDS011;21561;55.654;37.592;2023-11-22T05:41:48;11.95;;;2.83;;
35442;SDS011;21561;55.654;37.592;2023-11-22T05:44:15;11.52;;;3.28;;
35442;SDS011;21561;55.654;37.592;2023-11-22T05:46:42;11.75;;;3.47;;
35442;SDS011;21561;55.654;37.592;2023-11-22T05:49:09;14.52;;;3.67;;
35442;SDS011;21561;55.654;37.592;2023-11-22T05:51:38;12.40;;;3.10;;
35442;SDS011;21561;55.654;37.592;2023-11-22T05:54:06;14.23;;;3.70;;
35442;SDS011;21561;55.654;37.592;2023-11-22T05:56:33;13.43;;;3.53;;
35442;SDS011;21561;55.654;37.592;2023-11-22T05:59:00;11.68;;;3.28;;
35442;SDS011;21561;55.654;37.592;2023-11-22T06:01:27;14.38;;;3.35;;
35442;SDS011;21561;55.654;37.592;2023-11-22T06:03:54;12.10;;;3.50;;
35442;SDS011;21561;55.654;37.592;2023-11-22T06:06:21;15.27;;;3.90;;
35442;SDS011;21561;55.654;37.592;2023-11-22T06:08:48;12.15;;;3.08;;
35442;SDS011;21561;55.654;37.592;2023-11-22T06:11:15;11.63;;;3.40;;
35442;SDS011;21561;55.654;37.592;2023-11-22T06:13:42;11.77;;;2.92;;
35442;SDS011;21561;55.654;37.592;2023-11-22T06:16:09;13.20;;;3.35;;
35442;SDS011;21561;55.654;37.592;2023-11-22T06:18:36;9.82;;;2.45;;
35442;SDS011;21561;55.654;37.592;2023-11-22T06:21:07;11.02;;;2.50;;
35442;SDS011;21561;55.654;37.592;2023-11-22T06:23:35;10.95;;;3.03;;
35442;SDS011;21561;55.654;37.592;2023-11-22T06:26:02;10.32;;;3.00;;
35442;SDS011;21561;55.654;37.592;2023-11-22T06:28:29;10.05;;;2.50;;
35442;SDS011;21561;55.654;37.592;2023-11-22T06:30:56;8.23;;;2.60;;
35442;SDS011;21561;55.654;37.592;2023-11-22T06:33:23;6.28;;;1.83;;
35442;SDS011;21561;55.654;37.592;2023-11-22T06:35:51;8.50;;;2.72;;
35442;SDS011;21561;55.654;37.592;2023-11-22T06:38:18;7.85;;;2.53;;
35442;SDS011;21561;55.654;37.592;2023-11-22T06:40:45;6.70;;;1.83;;
35442;SDS011;21561;55.654;37.592;2023-11-22T06:43:12;8.88;;;2.20;;
35442;SDS011;21561;55.654;37.592;2023-11-22T06:45:39;8.73;;;2.47;;
35442;SDS011;21561;55.654;37.592;2023-11-22T06:48:06;8.82;;;2.72;;
35442;SDS011;21561;55.654;37.592;2023-11-22T06:50:33;8.02;;;2.42;;
35442;SDS011;21561;55.654;37.592;2023-11-22T06:53:00;6.22;;;1.92;;
35442;SDS011;21561;55.654;37.592;2023-11-22T06:55:29;7.07;;;1.70;;
35442;SDS011;21561;55.654;37.592;2023-11-22T06:57:59;7.00;;;2.05;;
35442;SDS011;21561;55.654;37.592;2023-11-22T07:00:26;9.95;;;2.33;;
35442;SDS011;21561;55.654;37.592;2023-11-22T07:02:54;7.55;;;2.03;;
35442;SDS011;21561;55.654;37.592;2023-11-22T07:05:21;7.82;;;2.20;;
35442;SDS011;21561;55.654;37.592;2023-11-22T07:07:48;7.72;;;2.17;;
35442;SDS011;21561;55.654;37.592;2023-11-22T07:10:16;7.93;;;2.15;;
35442;SDS011;21561;55.654;37.592;2023-11-22T07:12:47;6.90;;;1.95;;
35442;SDS011;21561;55.654;37.592;2023-11-22T07:15:14;6.95;;;2.30;;
35442;SDS011;21561;55.654;37.592;2023-11-22T07:17:41;6.20;;;1.67;;
35442;SDS011;21561;55.654;37.592;2023-11-22T07:20:08;8.73;;;2.58;;
35442;SDS011;21561;55.654;37.592;2023-11-22T07:22:42;9.25;;;2.40;;
35442;SDS011;21561;55.654;37.592;2023-11-22T07:25:09;5.47;;;1.95;;
35442;SDS011;21561;55.654;37.592;2023-11-22T07:27:45;6.68;;;1.98;;
35442;SDS011;21561;55.654;37.592;2023-11-22T07:30:13;6.95;;;2.53;;
35442;SDS011;21561;55.654;37.592;2023-11-22T07:32:40;3.75;;;1.67;;
35442;SDS011;21561;55.654;37.592;2023-11-22T07:35:07;7.50;;;1.80;;
35442;SDS011;21561;55.654;37.592;2023-11-22T07:37:38;5.85;;;2.00;;
35442;SDS011;21561;55.654;37.592;2023-11-22T07:40:11;6.70;;;2.13;;
35442;SDS011;21561;55.654;37.592;2023-11-22T07:42:40;5.57;;;1.83;;
35442;SDS011;21561;55.654;37.592;2023-11-22T07:45:10;7.60;;;1.85;;
35442;SDS011;21561;55.654;37.592;2023-11-22T07:47:41;7.30;;;1.88;;
35442;SDS011;21561;55.654;37.592;2023-11-22T07:50:10;6.57;;;1.92;;
35442;SDS011;21561;55.654;37.592;2023-11-22T07:52:38;6.75;;;1.98;;
35442;SDS011;21561;55.654;37.592;2023-11-22T07:55:07;8.50;;;2.00;;
35442;SDS011;21561;55.654;37.592;2023-11-22T07:57:34;7.65;;;1.85;;
35442;SDS011;21561;55.654;37.592;2023-11-22T08:00:02;6.97;;;2.00;;
35442;SDS011;21561;55.654;37.592;2023-11-22T08:02:34;3.70;;;1.35;;
35442;SDS011;21561;55.654;37.592;2023-11-22T08:05:03;8.43;;;1.63;;
35442;SDS011;21561;55.654;37.592;2023-11-22T08:07:35;5.68;;;1.52;;
35442;SDS011;21561;55.654;37.592;2023-11-22T08:10:07;5.13;;;1.83;;
35442;SDS011;21561;55.654;37.592;2023-11-22T08:12:46;6.30;;;1.77;;
35442;SDS011;21561;55.654;37.592;2023-11-22T08:15:14;6.03;;;1.35;;
35442;SDS011;21561;55.654;37.592;2023-11-22T08:17:42;5.03;;;1.25;;
35442;SDS011;21561;55.654;37.592;2023-11-22T08:20:10;6.07;;;1.58;;
35442;SDS011;21561;55.654;37.592;2023-11-22T08:22:41;4.40;;;1.48;;
35442;SDS011;21561;55.654;37.592;2023-11-22T08:25:08;7.03;;;1.63;;
35442;SDS011;21561;55.654;37.592;2023-11-22T08:27:39;6.43;;;1.40;;
35442;SDS011;21561;55.654;37.592;2023-11-22T08:30:08;2.95;;;1.27;;
35442;SDS011;21561;55.654;37.592;2023-11-22T08:32:40;5.00;;;1.45;;
35442;SDS011;21561;55.654;37.592;2023-11-22T08:35:14;3.58;;;1.27;;
35442;SDS011;21561;55.654;37.592;2023-11-22T08:37:42;4.20;;;1.13;;
35442;SDS011;21561;55.654;37.592;2023-11-22T08:40:10;6.40;;;1.90;;
35442;SDS011;21561;55.654;37.592;2023-11-22T08:42:47;5.07;;;1.30;;
35442;SDS011;21561;55.654;37.592;2023-11-22T08:45:15;2.40;;;0.73;;
35442;SDS011;21561;55.654;37.592;2023-11-22T08:47:45;3.42;;;1.30;;
35442;SDS011;21561;55.654;37.592;2023-11-22T08:50:13;3.22;;;1.02;;
35442;SDS011;21561;55.654;37.592;2023-11-22T08:52:42;5.57;;;2.03;;
35442;SDS011;21561;55.654;37.592;2023-11-22T08:55:12;5.43;;;1.70;;
35442;SDS011;21561;55.654;37.592;2023-11-22T08:57:43;3.80;;;1.42;;
35442;SDS011;21561;55.654;37.592;2023-11-22T09:00:10;5.00;;;1.10;;
35442;SDS011;21561;55.654;37.592;2023-11-22T09:02:38;5.70;;;1.65;;
35442;SDS011;21561;55.654;37.592;2023-11-22T09:05:06;6.68;;;1.85;;
35442;SDS011;21561;55.654;37.592;2023-11-22T09:07:39;6.05;;;1.75;;
35442;SDS011;21561;55.654;37.592;2023-11-22T09:10:06;6.90;;;2.13;;
35442;SDS011;21561;55.654;37.592;2023-11-22T09:12:38;9.23;;;2.13;;
35442;SDS011;21561;55.654;37.592;2023-11-22T09:15:08;7.88;;;2.28;;
35442;SDS011;21561;55.654;37.592;2023-11-22T09:17:39;5.53;;;1.92;;
35442;SDS011;21561;55.654;37.592;2023-11-22T09:20:13;5.88;;;2.00;;
35442;SDS011;21561;55.654;37.592;2023-11-22T09:22:41;6.30;;;1.80;;
35442;SDS011;21561;55.654;37.592;2023-11-22T09:25:12;2.78;;;1.15;;
35442;SDS011;21561;55.654;37.592;2023-11-22T09:27:40;8.32;;;2.22;;
35442;SDS011;21561;55.654;37.592;2023-11-22T09:30:07;5.60;;;1.60;;
35442;SDS011;21561;55.654;37.592;2023-11-22T09:32:44;12.13;;;3.05;;
35442;SDS011;21561;55.654;37.592;2023-11-22T09:35:15;13.23;;;2.67;;
35442;SDS011;21561;55.654;37.592;2023-11-22T09:37:42;14.88;;;3.20;;
35442;SDS011;21561;55.654;37.592;2023-11-22T09:40:09;10.38;;;2.92;;
35442;SDS011;21561;55.654;37.592;2023-11-22T09:42:37;10.95;;;3.28;;
35442;SDS011;21561;55.654;37.592;2023-11-22T09:45:04;9.63;;;2.50;;
35442;SDS011;21561;55.654;37.592;2023-11-22T09:47:32;8.80;;;2.13;;
35442;SDS011;21561;55.654;37.592;2023-11-22T09:50:02;11.35;;;2.47;;
35442;SDS011;21561;55.654;37.592;2023-11-22T09:52:34;9.82;;;2.40;;
35442;SDS011;21561;55.654;37.592;2023-11-22T09:55:04;8.75;;;3.17;;
35442;SDS011;21561;55.654;37.592;2023-11-22T09:57:32;9.38;;;2.75;;
35442;SDS011;21561;55.654;37.592;2023-11-22T10:00:00;8.60;;;2.58;;
35442;SDS011;21561;55.654;37.592;2023-11-22T10:02:29;8.18;;;2.30;;
35442;SDS011;21561;55.654;37.592;2023-11-22T10:04:57;10.18;;;2.80;;
35442;SDS011;21561;55.654;37.592;2023-11-22T10:07:24;8.80;;;2.50;;
35442;SDS011;21561;55.654;37.592;2023-11-22T10:09:51;6.53;;;2.25;;
35442;SDS011;21561;55.654;37.592;2023-11-22T10:12:19;9.43;;;2.15;;
35442;SDS011;21561;55.654;37.592;2023-11-22T10:14:47;7.93;;;2.50;;
35442;SDS011;21561;55.654;37.592;2023-11-22T10:17:14;9.95;;;2.50;;
35442;SDS011;21561;55.654;37.592;2023-11-22T10:19:45;9.63;;;2.88;;
35442;SDS011;21561;55.654;37.592;2023-11-22T10:22:12;7.18;;;2.30;;
35442;SDS011;21561;55.654;37.592;2023-11-22T10:24:43;6.47;;;2.00;;
35442;SDS011;21561;55.654;37.592;2023-11-22T10:27:13;7.38;;;2.30;;
35442;SDS011;21561;55.654;37.592;2023-11-22T10:29:40;8.43;;;2.33;;
35442;SDS011;21561;55.654;37.592;2023-11-22T10:32:07;8.45;;;2.10;;
35442;SDS011;21561;55.654;37.592;2023-11-22T10:34:34;10.02;;;2.75;;
35442;SDS011;21561;55.654;37.592;2023-11-22T10:37:02;9.73;;;2.30;;
35442;SDS011;21561;55.654;37.592;2023-11-22T10:39:30;14.60;;;2.53;;
35442;SDS011;21561;55.654;37.592;2023-11-22T10:41:57;9.75;;;2.30;;
35442;SDS011;21561;55.654;37.592;2023-11-22T10:44:26;11.15;;;2.20;;
35442;SDS011;21561;55.654;37.592;2023-11-22T10:46:53;8.20;;;2.50;;
35442;SDS011;21561;55.654;37.592;2023-11-22T10:49:21;7.70;;;2.42;;
35442;SDS011;21561;55.654;37.592;2023-11-22T10:51:49;6.93;;;1.83;;
35442;SDS011;21561;55.654;37.592;2023-11-22T10:54:22;9.35;;;2.60;;
35442;SDS011;21561;55.654;37.592;2023-11-22T10:56:52;13.70;;;3.90;;
35442;SDS011;21561;55.654;37.592;2023-11-22T10:59:26;8.18;;;2.22;;
35442;SDS011;21561;55.654;37.592;2023-11-22T11:01:54;9.23;;;2.28;;
35442;SDS011;21561;55.654;37.592;2023-11-22T11:04:38;5.65;;;1.85;;
35442;SDS011;21561;55.654;37.592;2023-11-22T11:07:09;8.63;;;2.08;;
35442;SDS011;21561;55.654;37.592;2023-11-22T11:09:42;7.32;;;2.38;;
35442;SDS011;21561;55.654;37.592;2023-11-22T11:12:12;6.65;;;2.15;;
35442;SDS011;21561;55.654;37.592;2023-11-22T11:14:40;6.63;;;2.08;;
35442;SDS011;21561;55.654;37.592;2023-11-22T11:17:08;9.07;;;2.25;;
35442;SDS011;21561;55.654;37.592;2023-11-22T11:19:36;10.30;;;2.50;;
35442;SDS011;21561;55.654;37.592;2023-11-22T11:22:03;10.48;;;2.67;;
35442;SDS011;21561;55.654;37.592;2023-11-22T11:24:37;11.32;;;3.38;;
35442;SDS011;21561;55.654;37.592;2023-11-22T11:27:06;11.25;;;2.75;;
35442;SDS011;21561;55.654;37.592;2023-11-22T11:29:34;10.38;;;2.75;;
35442;SDS011;21561;55.654;37.592;2023-11-22T11:32:03;10.77;;;2.55;;
35442;SDS011;21561;55.654;37.592;2023-11-22T11:34:30;11.32;;;2.45;;
35442;SDS011;21561;55.654;37.592;2023-11-22T11:36:59;10.13;;;2.80;;
35442;SDS011;21561;55.654;37.592;2023-11-22T11:39:26;11.02;;;2.33;;
35442;SDS011;21561;55.654;37.592;2023-11-22T11:42:09;12.63;;;2.58;;
35442;SDS011;21561;55.654;37.592;2023-11-22T11:47:32;8.20;;;2.10;;
35442;SDS011;21561;55.654;37.592;2023-11-22T11:50:00;9.45;;;2.45;;
35442;SDS011;21561;55.654;37.592;2023-11-22T11:52:30;8.95;;;2.50;;
35442;SDS011;21561;55.654;37.592;2023-11-22T11:54:57;8.30;;;2.28;;
35442;SDS011;21561;55.654;37.592;2023-11-22T11:57:30;10.68;;;2.60;;
35442;SDS011;21561;55.654;37.592;2023-11-22T11:59:57;7.95;;;2.40;;
35442;SDS011;21561;55.654;37.592;2023-11-22T12:02:26;10.00;;;1.83;;
35442;SDS011;21561;55.654;37.592;2023-11-22T12:04:53;12.60;;;2.38;;
35442;SDS011;21561;55.654;37.592;2023-11-22T12:07:21;13.20;;;2.42;;
35442;SDS011;21561;55.654;37.592;2023-11-22T12:09:48;9.88;;;2.47;;
35442;SDS011;21561;55.654;37.592;2023-11-22T12:12:15;7.70;;;2.13;;
35442;SDS011;21561;55.654;37.592;2023-11-22T12:14:42;6.90;;;2.30;;
35442;SDS011;21561;55.654;37.592;2023-11-22T12:17:09;9.88;;;2.40;;
35442;SDS011;21561;55.654;37.592;2023-11-22T12:19:37;7.18;;;2.28;;
35442;SDS011;21561;55.654;37.592;2023-11-22T12:22:04;6.35;;;1.90;;
35442;SDS011;21561;55.654;37.592;2023-11-22T12:24:34;6.63;;;2.13;;
35442;SDS011;21561;55.654;37.592;2023-11-22T12:27:01;5.35;;;1.95;;
35442;SDS011;21561;55.654;37.592;2023-11-22T12:29:29;10.13;;;2.55;;
35442;SDS011;21561;55.654;37.592;2023-11-22T12:31:56;8.68;;;2.25;;
35442;SDS011;21561;55.654;37.592;2023-11-22T12:34:23;9.52;;;2.45;;
35442;SDS011;21561;55.654;37.592;2023-11-22T12:36:53;10.30;;;2.53;;
35442;SDS011;21561;55.654;37.592;2023-11-22T12:39:21;9.23;;;2.40;;
35442;SDS011;21561;55.654;37.592;2023-11-22T12:41:50;8.00;;;2.50;;
35442;SDS011;21561;55.654;37.592;2023-11-22T12:44:46;13.50;;;3.05;;
35442;SDS011;21561;55.654;37.592;2023-11-22T12:47:15;12.40;;;2.90;;
35442;SDS011;21561;55.654;37.592;2023-11-22T12:49:43;10.00;;;2.70;;
35442;SDS011;21561;55.654;37.592;2023-11-22T12:52:13;13.27;;;3.50;;
35442;SDS011;21561;55.654;37.592;2023-11-22T12:54:40;15.63;;;2.78;;
35442;SDS011;21561;55.654;37.592;2023-11-22T12:57:10;14.65;;;3.05;;
35442;SDS011;21561;55.654;37.592;2023-11-22T12:59:39;9.50;;;3.00;;
35442;SDS011;21561;55.654;37.592;2023-11-22T13:02:07;12.95;;;3.25;;
35442;SDS011;21561;55.654;37.592;2023-11-22T13:04:35;8.93;;;2.38;;
35442;SDS011;21561;55.654;37.592;2023-11-22T13:07:02;9.77;;;2.47;;
35442;SDS011;21561;55.654;37.592;2023-11-22T13:09:29;14.43;;;2.88;;
35442;SDS011;21561;55.654;37.592;2023-11-22T13:11:59;10.02;;;2.53;;
35442;SDS011;21561;55.654;37.592;2023-11-22T13:14:26;10.57;;;2.60;;
35442;SDS011;21561;55.654;37.592;2023-11-22T13:16:58;7.28;;;2.05;;
35442;SDS011;21561;55.654;37.592;2023-11-22T13:19:25;9.38;;;2.28;;
35442;SDS011;21561;55.654;37.592;2023-11-22T13:21:52;10.45;;;2.75;;
35442;SDS011;21561;55.654;37.592;2023-11-22T13:24:19;13.05;;;3.00;;
35442;SDS011;21561;55.654;37.592;2023-11-22T13:26:47;10.88;;;2.08;;
35442;SDS011;21561;55.654;37.592;2023-11-22T13:29:14;10.13;;;2.92;;
35442;SDS011;21561;55.654;37.592;2023-11-22T13:31:41;11.73;;;2.92;;
35442;SDS011;21561;55.654;37.592;2023-11-22T13:34:08;8.88;;;2.35;;
35442;SDS011;21561;55.654;37.592;2023-11-22T13:36:37;10.85;;;3.05;;
35442;SDS011;21561;55.654;37.592;2023-11-22T13:39:04;13.23;;;3.58;;
35442;SDS011;21561;55.654;37.592;2023-11-22T13:41:31;12.98;;;3.53;;
35442;SDS011;21561;55.654;37.592;2023-11-22T13:43:59;11.70;;;3.17;;
35442;SDS011;21561;55.654;37.592;2023-11-22T13:46:27;10.10;;;2.90;;
35442;SDS011;21561;55.654;37.592;2023-11-22T13:48:55;12.05;;;3.08;;
35442;SDS011;21561;55.654;37.592;2023-11-22T13:51:22;12.38;;;3.25;;
35442;SDS011;21561;55.654;37.592;2023-11-22T13:53:51;12.15;;;3.55;;
35442;SDS011;21561;55.654;37.592;2023-11-22T13:56:20;12.20;;;3.35;;
35442;SDS011;21561;55.654;37.592;2023-11-22T13:58:48;15.50;;;3.88;;
35442;SDS011;21561;55.654;37.592;2023-11-22T14:01:15;13.52;;;3.65;;
35442;SDS011;21561;55.654;37.592;2023-11-22T14:03:49;19.45;;;3.80;;
35442;SDS011;21561;55.654;37.592;2023-11-22T14:06:17;16.75;;;4.20;;
35442;SDS011;21561;55.654;37.592;2023-11-22T14:08:44;12.32;;;3.13;;
35442;SDS011;21561;55.654;37.592;2023-11-22T14:11:12;13.70;;;3.60;;
35442;SDS011;21561;55.654;37.592;2023-11-22T14:13:39;13.15;;;3.47;;
35442;SDS011;21561;55.654;37.592;2023-11-22T14:16:07;13.73;;;4.00;;
35442;SDS011;21561;55.654;37.592;2023-11-22T14:18:35;13.55;;;3.90;;
35442;SDS011;21561;55.654;37.592;2023-11-22T14:21:02;11.75;;;3.53;;
35442;SDS011;21561;55.654;37.592;2023-11-22T14:23:31;13.80;;;3.75;;
35442;SDS011;21561;55.654;37.592;2023-11-22T14:25:58;8.80;;;2.78;;
35442;SDS011;21561;55.654;37.592;2023-11-22T14:28:25;10.43;;;2.47;;
35442;SDS011;21561;55.654;37.592;2023-11-22T14:30:52;13.10;;;3.53;;
35442;SDS011;21561;55.654;37.592;2023-11-22T14:33:21;11.63;;;3.05;;
35442;SDS011;21561;55.654;37.592;2023-11-22T14:35:48;16.13;;;3.25;;
35442;SDS011;21561;55.654;37.592;2023-11-22T14:38:15;10.70;;;2.55;;